sensor_id;sensor_type;location;lat;lon;timestamp;temperature;humidity
39865;DHT22;25538;48.392;9.976;2022-10-31T00:02:23;12.00;99.90
39865;DHT22;25538;48.392;9.976;2022-10-31T00:04:49;11.90;99.90
39865;DHT22;25538;48.392;9.976;2022-10-31T00:07:15;11.90;99.90
39865;DHT22;25538;48.392;9.976;2022-10-31T00:09:41;11.90;99.90
39865;DHT22;25538;48.392;9.976;2022-10-31T00:12:07;11.90;99.90
39865;DHT22;25538;48.392;9.976;2022-10-31T00:14:33;11.90;99.90
39865;DHT22;25538;48.392;9.976;2022-10-31T00:16:58;11.90;99.90
39865;DHT22;25538;48.392;9.976;2022-10-31T00:19:24;12.00;99.90
39865;DHT22;25538;48.392;9.976;2022-10-31T00:21:53;12.00;99.90
39865;DHT22;25538;48.392;9.976;2022-10-31T00:24:19;12.10;99.90
39865;DHT22;25538;48.392;9.976;2022-10-31T00:26:45;12.00;99.90
39865;DHT22;25538;48.392;9.976;2022-10-31T00:29:11;12.00;99.90
39865;DHT22;25538;48.392;9.976;2022-10-31T00:31:38;12.00;99.90
39865;DHT22;25538;48.392;9.976;2022-10-31T00:34:04;11.90;99.90
39865;DHT22;25538;48.392;9.976;2022-10-31T00:36:30;11.90;99.90
39865;DHT22;25538;48.392;9.976;2022-10-31T00:38:58;11.80;99.90
39865;DHT22;25538;48.392;9.976;2022-10-31T00:41:24;11.70;99.90
39865;DHT22;25538;48.392;9.976;2022-10-31T00:43:50;11.60;99.90
39865;DHT22;25538;48.392;9.976;2022-10-31T00:46:16;11.50;99.90
39865;DHT22;25538;48.392;9.976;2022-10-31T00:48:42;11.40;99.90
39865;DHT22;25538;48.392;9.976;2022-10-31T00:51:08;11.40;99.90
39865;DHT22;25538;48.392;9.976;2022-10-31T00:53:34;11.40;99.90
39865;DHT22;25538;48.392;9.976;2022-10-31T00:56:00;11.40;99.90
39865;DHT22;25538;48.392;9.976;2022-10-31T00:58:26;11.40;99.90
39865;DHT22;25538;48.392;9.976;2022-10-31T01:00:52;11.30;99.90
39865;DHT22;25538;48.392;9.976;2022-10-31T01:03:29;11.40;99.90
39865;DHT22;25538;48.392;9.976;2022-10-31T01:06:00;11.40;99.90
39865;DHT22;25538;48.392;9.976;2022-10-31T01:08:27;11.40;99.90
39865;DHT22;25538;48.392;9.976;2022-10-31T01:11:21;11.40;99.90
39865;DHT22;25538;48.392;9.976;2022-10-31T01:13:46;11.40;99.90
39865;DHT22;25538;48.392;9.976;2022-10-31T01:16:18;11.40;99.90
39865;DHT22;25538;48.392;9.976;2022-10-31T01:18:44;11.40;99.90
39865;DHT22;25538;48.392;9.976;2022-10-31T01:21:13;11.40;99.90
39865;DHT22;25538;48.392;9.976;2022-10-31T01:23:40;11.30;99.90
39865;DHT22;25538;48.392;9.976;2022-10-31T01:26:12;11.20;99.90
39865;DHT22;25538;48.392;9.976;2022-10-31T01:28:49;11.30;99.90
39865;DHT22;25538;48.392;9.976;2022-10-31T01:31:17;11.30;99.90
39865;DHT22;25538;48.392;9.976;2022-10-31T01:33:43;11.30;99.90
39865;DHT22;25538;48.392;9.976;2022-10-31T01:36:36;11.40;99.90
39865;DHT22;25538;48.392;9.976;2022-10-31T01:39:11;11.40;99.90
39865;DHT22;25538;48.392;9.976;2022-10-31T01:41:40;11.30;99.90
39865;DHT22;25538;48.392;9.976;2022-10-31T01:47:28;11.40;99.90
39865;DHT22;25538;48.392;9.976;2022-10-31T01:49:49;11.30;99.90
39865;DHT22;25538;48.392;9.976;2022-10-31T01:52:27;11.30;99.90
39865;DHT22;25538;48.392;9.976;2022-10-31T01:55:16;11.20;99.90
39865;DHT22;25538;48.392;9.976;2022-10-31T01:57:46;11.20;99.90
39865;DHT22;25538;48.392;9.976;2022-10-31T02:00:14;11.10;99.90
39865;DHT22;25538;48.392;9.976;2022-10-31T02:02:41;11.10;99.90
39865;DHT22;25538;48.392;9.976;2022-10-31T02:05:10;11.00;99.90
39865;DHT22;25538;48.392;9.976;2022-10-31T02:07:43;10.90;99.90
39865;DHT22;25538;48.392;9.976;2022-10-31T02:10:11;10.80;99.90
39865;DHT22;25538;48.392;9.976;2022-10-31T02:12:37;10.90;99.90
39865;DHT22;25538;48.392;9.976;2022-10-31T02:15:04;10.90;99.90
39865;DHT22;25538;48.392;9.976;2022-10-31T02:17:31;10.90;99.90
39865;DHT22;25538;48.392;9.976;2022-10-31T02:28:18;10.80;99.90
39865;DHT22;25538;48.392;9.976;2022-10-31T02:31:08;10.80;99.90
39865;DHT22;25538;48.392;9.976;2022-10-31T02:33:53;10.90;99.90
39865;DHT22;25538;48.392;9.976;2022-10-31T02:36:32;10.90;99.90
39865;DHT22;25538;48.392;9.976;2022-10-31T02:39:29;10.80;99.90
39865;DHT22;25538;48.392;9.976;2022-10-31T02:47:14;10.80;99.90
39865;DHT22;25538;48.392;9.976;2022-10-31T02:50:00;10.80;99.90
39865;DHT22;25538;48.392;9.976;2022-10-31T02:52:30;10.80;99.90
39865;DHT22;25538;48.392;9.976;2022-10-31T02:54:57;10.80;99.90
39865;DHT22;25538;48.392;9.976;2022-10-31T02:57:30;10.70;99.90
39865;DHT22;25538;48.392;9.976;2022-10-31T03:00:05;10.70;99.90
39865;DHT22;25538;48.392;9.976;2022-10-31T03:11:05;10.50;99.90
39865;DHT22;25538;48.392;9.976;2022-10-31T03:13:42;10.40;99.90
39865;DHT22;25538;48.392;9.976;2022-10-31T03:16:20;10.40;99.90
39865;DHT22;25538;48.392;9.976;2022-10-31T03:18:53;10.30;99.90
39865;DHT22;25538;48.392;9.976;2022-10-31T03:21:30;10.30;99.90
39865;DHT22;25538;48.392;9.976;2022-10-31T03:23:59;10.30;99.90
39865;DHT22;25538;48.392;9.976;2022-10-31T03:26:27;10.30;99.90
39865;DHT22;25538;48.392;9.976;2022-10-31T03:29:02;10.30;99.90
39865;DHT22;25538;48.392;9.976;2022-10-31T03:31:36;10.30;99.90
39865;DHT22;25538;48.392;9.976;2022-10-31T03:34:04;10.30;99.90
39865;DHT22;25538;48.392;9.976;2022-10-31T03:36:33;10.30;99.90
39865;DHT22;25538;48.392;9.976;2022-10-31T03:39:02;10.30;99.90
39865;DHT22;25538;48.392;9.976;2022-10-31T03:41:34;10.20;99.90
39865;DHT22;25538;48.392;9.976;2022-10-31T03:44:08;10.20;99.90
39865;DHT22;25538;48.392;9.976;2022-10-31T03:46:35;10.10;99.90
39865;DHT22;25538;48.392;9.976;2022-10-31T03:49:01;10.10;99.90
39865;DHT22;25538;48.392;9.976;2022-10-31T03:51:47;10.20;99.90
39865;DHT22;25538;48.392;9.976;2022-10-31T03:54:24;10.20;99.90
39865;DHT22;25538;48.392;9.976;2022-10-31T03:57:09;10.20;99.90
39865;DHT22;25538;48.392;9.976;2022-10-31T03:59:41;10.10;99.90
39865;DHT22;25538;48.392;9.976;2022-10-31T04:02:14;10.00;99.90
39865;DHT22;25538;48.392;9.976;2022-10-31T04:04:42;10.00;99.90
39865;DHT22;25538;48.392;9.976;2022-10-31T04:07:10;10.00;99.90
39865;DHT22;25538;48.392;9.976;2022-10-31T04:09:40;10.10;99.90
39865;DHT22;25538;48.392;9.976;2022-10-31T04:12:09;10.00;99.90
39865;DHT22;25538;48.392;9.976;2022-10-31T04:14:39;10.00;99.90
39865;DHT22;25538;48.392;9.976;2022-10-31T04:17:09;10.00;99.90
39865;DHT22;25538;48.392;9.976;2022-10-31T04:19:36;10.00;99.90
39865;DHT22;25538;48.392;9.976;2022-10-31T04:22:02;10.10;99.90
39865;DHT22;25538;48.392;9.976;2022-10-31T04:24:28;10.00;99.90
39865;DHT22;25538;48.392;9.976;2022-10-31T04:26:54;10.00;99.90
39865;DHT22;25538;48.392;9.976;2022-10-31T04:29:20;10.00;99.90
39865;DHT22;25538;48.392;9.976;2022-10-31T04:31:46;10.00;99.90
39865;DHT22;25538;48.392;9.976;2022-10-31T04:34:12;10.00;99.90
39865;DHT22;25538;48.392;9.976;2022-10-31T04:36:38;9.90;99.90
39865;DHT22;25538;48.392;9.976;2022-10-31T04:39:04;10.00;99.90
39865;DHT22;25538;48.392;9.976;2022-10-31T04:41:30;9.90;99.90
39865;DHT22;25538;48.392;9.976;2022-10-31T04:43:55;9.80;99.90
39865;DHT22;25538;48.392;9.976;2022-10-31T04:46:21;9.80;99.90
39865;DHT22;25538;48.392;9.976;2022-10-31T04:48:47;9.80;99.90
39865;DHT22;25538;48.392;9.976;2022-10-31T04:51:13;9.80;99.90
39865;DHT22;25538;48.392;9.976;2022-10-31T04:53:39;9.90;99.90
39865;DHT22;25538;48.392;9.976;2022-10-31T04:56:05;9.90;99.90
39865;DHT22;25538;48.392;9.976;2022-10-31T04:58:31;9.90;99.90
39865;DHT22;25538;48.392;9.976;2022-10-31T05:00:57;10.00;99.90
39865;DHT22;25538;48.392;9.976;2022-10-31T05:03:23;10.00;99.90
39865;DHT22;25538;48.392;9.976;2022-10-31T05:05:49;10.00;99.90
39865;DHT22;25538;48.392;9.976;2022-10-31T05:08:15;10.10;99.90
39865;DHT22;25538;48.392;9.976;2022-10-31T05:10:41;10.10;99.90
39865;DHT22;25538;48.392;9.976;2022-10-31T05:13:08;10.10;99.90
39865;DHT22;25538;48.392;9.976;2022-10-31T05:15:34;10.10;99.90
39865;DHT22;25538;48.392;9.976;2022-10-31T05:18:00;10.10;99.90
39865;DHT22;25538;48.392;9.976;2022-10-31T05:20:28;10.00;99.90
39865;DHT22;25538;48.392;9.976;2022-10-31T05:22:55;10.00;99.90
39865;DHT22;25538;48.392;9.976;2022-10-31T05:25:23;10.00;99.90
39865;DHT22;25538;48.392;9.976;2022-10-31T05:27:51;10.00;99.90
39865;DHT22;25538;48.392;9.976;2022-10-31T05:30:20;10.00;99.90
39865;DHT22;25538;48.392;9.976;2022-10-31T05:32:48;10.00;99.90
39865;DHT22;25538;48.392;9.976;2022-10-31T05:35:17;9.90;99.90
39865;DHT22;25538;48.392;9.976;2022-10-31T05:37:43;9.90;99.90
39865;DHT22;25538;48.392;9.976;2022-10-31T05:40:11;9.90;99.90
39865;DHT22;25538;48.392;9.976;2022-10-31T05:42:39;9.90;99.90
39865;DHT22;25538;48.392;9.976;2022-10-31T05:45:07;9.80;99.90
39865;DHT22;25538;48.392;9.976;2022-10-31T05:47:33;9.80;99.90
39865;DHT22;25538;48.392;9.976;2022-10-31T05:49:59;9.80;99.90
39865;DHT22;25538;48.392;9.976;2022-10-31T05:52:25;9.80;99.90
39865;DHT22;25538;48.392;9.976;2022-10-31T05:54:51;9.70;99.90
39865;DHT22;25538;48.392;9.976;2022-10-31T05:57:17;9.70;99.90
39865;DHT22;25538;48.392;9.976;2022-10-31T05:59:42;9.70;99.90
39865;DHT22;25538;48.392;9.976;2022-10-31T06:02:08;9.60;99.90
39865;DHT22;25538;48.392;9.976;2022-10-31T06:04:34;9.70;99.90
39865;DHT22;25538;48.392;9.976;2022-10-31T06:07:00;9.60;99.90
39865;DHT22;25538;48.392;9.976;2022-10-31T06:09:26;9.50;99.90
39865;DHT22;25538;48.392;9.976;2022-10-31T06:11:52;9.50;99.90
39865;DHT22;25538;48.392;9.976;2022-10-31T06:14:18;9.50;99.90
39865;DHT22;25538;48.392;9.976;2022-10-31T06:16:44;9.50;99.90
39865;DHT22;25538;48.392;9.976;2022-10-31T06:19:10;9.50;99.90
39865;DHT22;25538;48.392;9.976;2022-10-31T06:21:36;9.50;99.90
39865;DHT22;25538;48.392;9.976;2022-10-31T06:24:02;9.50;99.90
39865;DHT22;25538;48.392;9.976;2022-10-31T06:26:28;9.50;99.90
39865;DHT22;25538;48.392;9.976;2022-10-31T06:28:54;9.50;99.90
39865;DHT22;25538;48.392;9.976;2022-10-31T06:31:20;9.40;99.90
39865;DHT22;25538;48.392;9.976;2022-10-31T06:33:46;9.40;99.90
39865;DHT22;25538;48.392;9.976;2022-10-31T06:36:11;9.40;99.90
39865;DHT22;25538;48.392;9.976;2022-10-31T06:38:37;9.60;99.90
39865;DHT22;25538;48.392;9.976;2022-10-31T06:41:05;9.70;99.90
39865;DHT22;25538;48.392;9.976;2022-10-31T06:43:31;9.70;99.90
39865;DHT22;25538;48.392;9.976;2022-10-31T06:45:57;9.70;99.90
39865;DHT22;25538;48.392;9.976;2022-10-31T06:48:23;9.80;99.90
39865;DHT22;25538;48.392;9.976;2022-10-31T06:50:49;9.70;99.90
39865;DHT22;25538;48.392;9.976;2022-10-31T06:53:15;9.80;99.90
39865;DHT22;25538;48.392;9.976;2022-10-31T06:55:42;9.80;99.90
39865;DHT22;25538;48.392;9.976;2022-10-31T06:58:09;9.90;99.90
39865;DHT22;25538;48.392;9.976;2022-10-31T07:00:36;9.90;99.90
39865;DHT22;25538;48.392;9.976;2022-10-31T07:03:05;9.90;99.90
39865;DHT22;25538;48.392;9.976;2022-10-31T07:05:31;10.00;99.90
39865;DHT22;25538;48.392;9.976;2022-10-31T07:07:59;10.10;99.90
39865;DHT22;25538;48.392;9.976;2022-10-31T07:10:27;10.20;99.90
39865;DHT22;25538;48.392;9.976;2022-10-31T07:12:57;10.20;99.90
39865;DHT22;25538;48.392;9.976;2022-10-31T07:15:24;10.30;99.90
39865;DHT22;25538;48.392;9.976;2022-10-31T07:17:50;10.40;99.90
39865;DHT22;25538;48.392;9.976;2022-10-31T07:20:17;10.60;99.90
39865;DHT22;25538;48.392;9.976;2022-10-31T07:22:43;10.90;99.90
39865;DHT22;25538;48.392;9.976;2022-10-31T07:25:09;11.20;99.90
39865;DHT22;25538;48.392;9.976;2022-10-31T07:27:40;11.40;99.90
39865;DHT22;25538;48.392;9.976;2022-10-31T07:30:07;11.60;99.90
39865;DHT22;25538;48.392;9.976;2022-10-31T07:32:52;11.80;99.90
39865;DHT22;25538;48.392;9.976;2022-10-31T07:35:21;11.90;99.90
39865;DHT22;25538;48.392;9.976;2022-10-31T07:37:47;11.90;99.90
39865;DHT22;25538;48.392;9.976;2022-10-31T07:40:14;11.90;99.90
39865;DHT22;25538;48.392;9.976;2022-10-31T07:42:46;12.10;99.90
39865;DHT22;25538;48.392;9.976;2022-10-31T07:45:14;12.30;99.90
39865;DHT22;25538;48.392;9.976;2022-10-31T07:47:45;12.40;99.90
39865;DHT22;25538;48.392;9.976;2022-10-31T07:50:14;12.50;99.90
39865;DHT22;25538;48.392;9.976;2022-10-31T07:52:40;12.60;99.90
39865;DHT22;25538;48.392;9.976;2022-10-31T07:55:07;12.60;99.90
39865;DHT22;25538;48.392;9.976;2022-10-31T07:57:33;12.70;99.90
39865;DHT22;25538;48.392;9.976;2022-10-31T07:59:59;12.80;99.90
39865;DHT22;25538;48.392;9.976;2022-10-31T08:02:25;13.00;99.90
39865;DHT22;25538;48.392;9.976;2022-10-31T08:04:51;13.10;99.90
39865;DHT22;25538;48.392;9.976;2022-10-31T08:07:18;13.20;99.90
39865;DHT22;25538;48.392;9.976;2022-10-31T08:09:44;13.30;99.90
39865;DHT22;25538;48.392;9.976;2022-10-31T08:12:10;13.40;99.90
39865;DHT22;25538;48.392;9.976;2022-10-31T08:14:36;13.60;99.90
39865;DHT22;25538;48.392;9.976;2022-10-31T08:17:02;14.20;99.90
39865;DHT22;25538;48.392;9.976;2022-10-31T08:19:28;14.70;99.90
39865;DHT22;25538;48.392;9.976;2022-10-31T08:21:54;15.20;99.90
39865;DHT22;25538;48.392;9.976;2022-10-31T08:24:24;15.50;99.90
39865;DHT22;25538;48.392;9.976;2022-10-31T08:26:50;15.80;99.90
39865;DHT22;25538;48.392;9.976;2022-10-31T08:29:16;16.10;99.90
39865;DHT22;25538;48.392;9.976;2022-10-31T08:31:42;16.50;99.90
39865;DHT22;25538;48.392;9.976;2022-10-31T08:34:08;16.60;99.90
39865;DHT22;25538;48.392;9.976;2022-10-31T08:36:34;16.70;99.90
39865;DHT22;25538;48.392;9.976;2022-10-31T08:39:01;17.00;99.90
39865;DHT22;25538;48.392;9.976;2022-10-31T08:41:28;17.00;99.90
39865;DHT22;25538;48.392;9.976;2022-10-31T08:43:54;17.00;99.90
39865;DHT22;25538;48.392;9.976;2022-10-31T08:46:20;17.00;99.90
39865;DHT22;25538;48.392;9.976;2022-10-31T08:48:49;17.10;99.90
39865;DHT22;25538;48.392;9.976;2022-10-31T08:51:15;17.20;99.90
39865;DHT22;25538;48.392;9.976;2022-10-31T08:53:41;17.50;99.90
39865;DHT22;25538;48.392;9.976;2022-10-31T08:56:07;17.80;99.90
39865;DHT22;25538;48.392;9.976;2022-10-31T08:58:33;17.90;99.90
39865;DHT22;25538;48.392;9.976;2022-10-31T09:01:00;18.00;99.90
39865;DHT22;25538;48.392;9.976;2022-10-31T09:03:29;18.00;99.90
39865;DHT22;25538;48.392;9.976;2022-10-31T09:05:57;17.50;99.90
39865;DHT22;25538;48.392;9.976;2022-10-31T09:08:23;17.40;99.90
39865;DHT22;25538;48.392;9.976;2022-10-31T09:10:50;17.70;99.90
39865;DHT22;25538;48.392;9.976;2022-10-31T09:13:20;18.00;99.90
39865;DHT22;25538;48.392;9.976;2022-10-31T09:15:48;18.00;99.90
39865;DHT22;25538;48.392;9.976;2022-10-31T09:18:16;18.20;99.90
39865;DHT22;25538;48.392;9.976;2022-10-31T09:20:43;18.40;99.90
39865;DHT22;25538;48.392;9.976;2022-10-31T09:23:12;18.60;99.90
39865;DHT22;25538;48.392;9.976;2022-10-31T09:25:38;18.90;99.90
39865;DHT22;25538;48.392;9.976;2022-10-31T09:28:06;19.00;99.90
39865;DHT22;25538;48.392;9.976;2022-10-31T09:30:34;19.20;99.90
39865;DHT22;25538;48.392;9.976;2022-10-31T09:33:03;19.40;99.90
39865;DHT22;25538;48.392;9.976;2022-10-31T09:35:29;19.60;99.90
39865;DHT22;25538;48.392;9.976;2022-10-31T09:38:01;19.70;99.90
39865;DHT22;25538;48.392;9.976;2022-10-31T09:40:43;19.70;99.90
39865;DHT22;25538;48.392;9.976;2022-10-31T09:46:51;19.90;99.90
39865;DHT22;25538;48.392;9.976;2022-10-31T09:52:19;20.20;99.90
39865;DHT22;25538;48.392;9.976;2022-10-31T09:55:00;20.00;99.90
39865;DHT22;25538;48.392;9.976;2022-10-31T09:57:32;20.30;99.90
39865;DHT22;25538;48.392;9.976;2022-10-31T09:59:59;20.50;99.90
39865;DHT22;25538;48.392;9.976;2022-10-31T10:02:35;20.60;99.90
39865;DHT22;25538;48.392;9.976;2022-10-31T10:05:11;20.50;99.90
39865;DHT22;25538;48.392;9.976;2022-10-31T10:08:01;20.70;99.90
39865;DHT22;25538;48.392;9.976;2022-10-31T10:10:51;20.50;99.90
39865;DHT22;25538;48.392;9.976;2022-10-31T10:30:02;20.90;99.90
39865;DHT22;25538;48.392;9.976;2022-10-31T10:32:33;21.00;99.90
39865;DHT22;25538;48.392;9.976;2022-10-31T10:35:33;21.00;99.90
39865;DHT22;25538;48.392;9.976;2022-10-31T10:40:48;20.80;99.90
39865;DHT22;25538;48.392;9.976;2022-10-31T10:43:30;20.50;99.90
39865;DHT22;25538;48.392;9.976;2022-10-31T10:54:33;21.70;99.90
39865;DHT22;25538;48.392;9.976;2022-10-31T10:57:22;22.60;99.90
39865;DHT22;25538;48.392;9.976;2022-10-31T10:59:49;23.90;99.90
39865;DHT22;25538;48.392;9.976;2022-10-31T11:02:21;24.80;99.90
39865;DHT22;25538;48.392;9.976;2022-10-31T11:04:51;25.60;99.90
39865;DHT22;25538;48.392;9.976;2022-10-31T11:07:17;25.70;99.90
39865;DHT22;25538;48.392;9.976;2022-10-31T11:09:43;26.20;99.90
39865;DHT22;25538;48.392;9.976;2022-10-31T11:12:15;26.30;99.90
39865;DHT22;25538;48.392;9.976;2022-10-31T11:14:51;26.20;99.90
39865;DHT22;25538;48.392;9.976;2022-10-31T11:17:39;25.90;99.90
39865;DHT22;25538;48.392;9.976;2022-10-31T11:20:28;25.90;99.90
39865;DHT22;25538;48.392;9.976;2022-10-31T11:23:19;26.10;99.60
39865;DHT22;25538;48.392;9.976;2022-10-31T11:25:59;26.80;99.10
39865;DHT22;25538;48.392;9.976;2022-10-31T11:28:30;27.90;96.60
39865;DHT22;25538;48.392;9.976;2022-10-31T11:30:59;28.30;94.70
39865;DHT22;25538;48.392;9.976;2022-10-31T11:35:53;28.50;93.30
39865;DHT22;25538;48.392;9.976;2022-10-31T11:38:23;29.20;91.10
39865;DHT22;25538;48.392;9.976;2022-10-31T11:41:17;29.50;90.10
39865;DHT22;25538;48.392;9.976;2022-10-31T11:43:56;29.80;87.90
39865;DHT22;25538;48.392;9.976;2022-10-31T11:46:46;30.20;85.50
39865;DHT22;25538;48.392;9.976;2022-10-31T11:49:34;30.70;81.70
39865;DHT22;25538;48.392;9.976;2022-10-31T11:52:06;31.30;78.50
39865;DHT22;25538;48.392;9.976;2022-10-31T11:54:47;30.80;77.50
39865;DHT22;25538;48.392;9.976;2022-10-31T11:57:47;31.00;77.00
39865;DHT22;25538;48.392;9.976;2022-10-31T12:00:23;31.10;75.30
39865;DHT22;25538;48.392;9.976;2022-10-31T12:02:50;31.10;74.20
39865;DHT22;25538;48.392;9.976;2022-10-31T12:05:24;31.10;71.80
39865;DHT22;25538;48.392;9.976;2022-10-31T12:07:51;30.90;70.90
39865;DHT22;25538;48.392;9.976;2022-10-31T12:10:21;30.70;72.30
39865;DHT22;25538;48.392;9.976;2022-10-31T12:13:26;30.70;71.80
39865;DHT22;25538;48.392;9.976;2022-10-31T12:16:35;30.30;72.70
39865;DHT22;25538;48.392;9.976;2022-10-31T12:43:29;25.30;86.50
39865;DHT22;25538;48.392;9.976;2022-10-31T12:45:51;24.90;88.10
39865;DHT22;25538;48.392;9.976;2022-10-31T12:48:56;24.40;90.20
39865;DHT22;25538;48.392;9.976;2022-10-31T12:54:19;23.30;93.00
39865;DHT22;25538;48.392;9.976;2022-10-31T12:57:03;23.10;93.20
39865;DHT22;25538;48.392;9.976;2022-10-31T12:59:49;22.90;94.10
39865;DHT22;25538;48.392;9.976;2022-10-31T13:07:28;22.80;94.90
39865;DHT22;25538;48.392;9.976;2022-10-31T13:12:29;22.20;96.60
39865;DHT22;25538;48.392;9.976;2022-10-31T13:15:05;21.90;96.90
39865;DHT22;25538;48.392;9.976;2022-10-31T13:17:55;21.40;97.80
39865;DHT22;25538;48.392;9.976;2022-10-31T13:20:32;21.00;99.00
39865;DHT22;25538;48.392;9.976;2022-10-31T13:26:20;20.70;99.90
39865;DHT22;25538;48.392;9.976;2022-10-31T13:29:20;20.40;99.90
39865;DHT22;25538;48.392;9.976;2022-10-31T13:31:48;20.50;99.90
39865;DHT22;25538;48.392;9.976;2022-10-31T13:34:36;20.70;99.90
39865;DHT22;25538;48.392;9.976;2022-10-31T13:37:15;21.00;99.90
39865;DHT22;25538;48.392;9.976;2022-10-31T13:40:05;21.40;99.90
39865;DHT22;25538;48.392;9.976;2022-10-31T13:42:56;21.70;99.90
39865;DHT22;25538;48.392;9.976;2022-10-31T13:45:26;22.10;99.90
39865;DHT22;25538;48.392;9.976;2022-10-31T13:50:41;22.80;99.90
39865;DHT22;25538;48.392;9.976;2022-10-31T13:53:13;22.90;99.40
39865;DHT22;25538;48.392;9.976;2022-10-31T13:55:42;22.50;99.90
39865;DHT22;25538;48.392;9.976;2022-10-31T13:58:28;22.20;99.90
39865;DHT22;25538;48.392;9.976;2022-10-31T14:01:15;22.30;99.90
39865;DHT22;25538;48.392;9.976;2022-10-31T14:03:45;22.90;98.80
39865;DHT22;25538;48.392;9.976;2022-10-31T14:06:11;23.30;98.60
39865;DHT22;25538;48.392;9.976;2022-10-31T14:08:41;23.20;98.60
39865;DHT22;25538;48.392;9.976;2022-10-31T14:11:26;23.00;98.20
39865;DHT22;25538;48.392;9.976;2022-10-31T14:13:54;23.00;98.50
39865;DHT22;25538;48.392;9.976;2022-10-31T14:16:28;24.20;97.60
39865;DHT22;25538;48.392;9.976;2022-10-31T14:19:05;25.20;95.70
39865;DHT22;25538;48.392;9.976;2022-10-31T14:21:41;26.40;93.80
39865;DHT22;25538;48.392;9.976;2022-10-31T14:24:30;27.00;93.20
39865;DHT22;25538;48.392;9.976;2022-10-31T14:29:31;28.30;90.10
39865;DHT22;25538;48.392;9.976;2022-10-31T14:40:15;29.10;86.80
39865;DHT22;25538;48.392;9.976;2022-10-31T14:43:29;29.80;84.70
39865;DHT22;25538;48.392;9.976;2022-10-31T14:51:18;29.10;81.80
39865;DHT22;25538;48.392;9.976;2022-10-31T14:53:53;28.50;82.80
39865;DHT22;25538;48.392;9.976;2022-10-31T14:56:31;28.30;83.80
39865;DHT22;25538;48.392;9.976;2022-10-31T14:59:08;28.40;83.00
39865;DHT22;25538;48.392;9.976;2022-10-31T15:01:36;28.30;83.70
39865;DHT22;25538;48.392;9.976;2022-10-31T15:04:13;27.70;84.80
39865;DHT22;25538;48.392;9.976;2022-10-31T15:06:47;26.70;87.40
39865;DHT22;25538;48.392;9.976;2022-10-31T15:09:41;25.40;90.30
39865;DHT22;25538;48.392;9.976;2022-10-31T15:12:49;24.20;92.20
39865;DHT22;25538;48.392;9.976;2022-10-31T15:15:23;23.20;93.80
39865;DHT22;25538;48.392;9.976;2022-10-31T15:18:00;22.50;95.30
39865;DHT22;25538;48.392;9.976;2022-10-31T15:20:33;21.90;96.70
39865;DHT22;25538;48.392;9.976;2022-10-31T15:23:02;21.50;97.80
39865;DHT22;25538;48.392;9.976;2022-10-31T15:25:33;21.00;98.60
39865;DHT22;25538;48.392;9.976;2022-10-31T15:27:59;20.70;99.80
39865;DHT22;25538;48.392;9.976;2022-10-31T15:30:28;20.40;99.90
39865;DHT22;25538;48.392;9.976;2022-10-31T15:32:55;20.10;99.90
39865;DHT22;25538;48.392;9.976;2022-10-31T15:35:26;20.00;99.90
39865;DHT22;25538;48.392;9.976;2022-10-31T15:37:53;19.70;99.90
39865;DHT22;25538;48.392;9.976;2022-10-31T15:40:21;19.60;99.90
39865;DHT22;25538;48.392;9.976;2022-10-31T15:42:59;19.40;99.90
39865;DHT22;25538;48.392;9.976;2022-10-31T15:45:27;19.20;99.90
39865;DHT22;25538;48.392;9.976;2022-10-31T15:47:55;19.00;99.90
39865;DHT22;25538;48.392;9.976;2022-10-31T15:52:58;18.50;99.90
39865;DHT22;25538;48.392;9.976;2022-10-31T15:55:27;18.40;99.90
39865;DHT22;25538;48.392;9.976;2022-10-31T15:58:12;18.20;99.90
39865;DHT22;25538;48.392;9.976;2022-10-31T16:00:40;18.10;99.90
39865;DHT22;25538;48.392;9.976;2022-10-31T16:13:37;17.50;99.90
39865;DHT22;25538;48.392;9.976;2022-10-31T16:16:11;17.40;99.90
39865;DHT22;25538;48.392;9.976;2022-10-31T16:18:39;17.30;99.90
39865;DHT22;25538;48.392;9.976;2022-10-31T16:21:08;17.20;99.90
39865;DHT22;25538;48.392;9.976;2022-10-31T16:23:34;17.20;99.90
39865;DHT22;25538;48.392;9.976;2022-10-31T16:26:06;17.10;99.90
39865;DHT22;25538;48.392;9.976;2022-10-31T16:28:32;16.90;99.90
39865;DHT22;25538;48.392;9.976;2022-10-31T16:30:59;16.80;99.90
39865;DHT22;25538;48.392;9.976;2022-10-31T16:33:32;16.80;99.90
39865;DHT22;25538;48.392;9.976;2022-10-31T16:36:00;16.70;99.90
39865;DHT22;25538;48.392;9.976;2022-10-31T16:38:29;16.60;99.90
39865;DHT22;25538;48.392;9.976;2022-10-31T16:40:54;16.50;99.90
39865;DHT22;25538;48.392;9.976;2022-10-31T16:43:21;16.50;99.90
39865;DHT22;25538;48.392;9.976;2022-10-31T16:45:50;16.50;99.90
39865;DHT22;25538;48.392;9.976;2022-10-31T16:48:18;16.40;99.90
39865;DHT22;25538;48.392;9.976;2022-10-31T16:50:47;16.30;99.90
39865;DHT22;25538;48.392;9.976;2022-10-31T16:53:14;16.30;99.90
39865;DHT22;25538;48.392;9.976;2022-10-31T16:55:58;16.20;99.90
39865;DHT22;25538;48.392;9.976;2022-10-31T16:58:27;16.10;99.90
39865;DHT22;25538;48.392;9.976;2022-10-31T17:00:54;16.10;99.90
39865;DHT22;25538;48.392;9.976;2022-10-31T17:03:20;16.00;99.90
39865;DHT22;25538;48.392;9.976;2022-10-31T17:05:46;15.90;99.90
39865;DHT22;25538;48.392;9.976;2022-10-31T17:08:12;15.90;99.90
39865;DHT22;25538;48.392;9.976;2022-10-31T17:10:39;15.80;99.90
39865;DHT22;25538;48.392;9.976;2022-10-31T17:13:09;15.80;99.90
39865;DHT22;25538;48.392;9.976;2022-10-31T17:15:46;15.70;99.90
39865;DHT22;25538;48.392;9.976;2022-10-31T17:18:16;15.60;99.90
39865;DHT22;25538;48.392;9.976;2022-10-31T17:20:43;15.50;99.90
39865;DHT22;25538;48.392;9.976;2022-10-31T17:23:13;15.40;99.90
39865;DHT22;25538;48.392;9.976;2022-10-31T17:25:40;15.30;99.90
39865;DHT22;25538;48.392;9.976;2022-10-31T17:28:10;15.30;99.90
39865;DHT22;25538;48.392;9.976;2022-10-31T17:30:37;15.30;99.90
39865;DHT22;25538;48.392;9.976;2022-10-31T17:33:03;15.30;99.90
39865;DHT22;25538;48.392;9.976;2022-10-31T17:35:29;15.30;99.90
39865;DHT22;25538;48.392;9.976;2022-10-31T17:37:55;15.10;99.90
39865;DHT22;25538;48.392;9.976;2022-10-31T17:40:21;15.10;99.90
39865;DHT22;25538;48.392;9.976;2022-10-31T17:42:52;15.10;99.90
39865;DHT22;25538;48.392;9.976;2022-10-31T17:45:19;15.00;99.90
39865;DHT22;25538;48.392;9.976;2022-10-31T17:47:49;14.90;99.90
39865;DHT22;25538;48.392;9.976;2022-10-31T17:50:17;14.90;99.90
39865;DHT22;25538;48.392;9.976;2022-10-31T17:52:43;14.90;99.90
39865;DHT22;25538;48.392;9.976;2022-10-31T17:55:10;14.80;99.90
39865;DHT22;25538;48.392;9.976;2022-10-31T17:57:37;14.80;99.90
39865;DHT22;25538;48.392;9.976;2022-10-31T18:00:05;14.70;99.90
39865;DHT22;25538;48.392;9.976;2022-10-31T18:02:32;14.70;99.90
39865;DHT22;25538;48.392;9.976;2022-10-31T18:04:58;14.70;99.90
39865;DHT22;25538;48.392;9.976;2022-10-31T18:07:24;14.60;99.90
39865;DHT22;25538;48.392;9.976;2022-10-31T18:09:49;14.50;99.90